createdAt,value
2023-12-18T00:01:06.370Z,1.25
2023-12-18T00:03:33.160Z,1.25
2023-12-18T00:05:59.969Z,1.60
2023-12-18T00:08:26.634Z,1.10
2023-12-18T00:10:53.648Z,1.20
2023-12-18T00:13:20.344Z,1.25
2023-12-18T00:15:47.089Z,0.90
2023-12-18T00:18:13.902Z,1.10
2023-12-18T00:20:40.692Z,1.10
2023-12-18T00:23:07.339Z,1.30
2023-12-18T00:25:33.967Z,1.15
2023-12-18T00:28:00.687Z,1.38
2023-12-18T00:30:27.410Z,1.30
2023-12-18T00:32:54.095Z,1.20
2023-12-18T00:35:23.141Z,1.10
2023-12-18T00:37:49.764Z,1.20
2023-12-18T00:40:16.582Z,0.90
2023-12-18T00:42:43.258Z,1.00
2023-12-18T00:45:10.100Z,1.53
2023-12-18T00:47:36.796Z,1.20
2023-12-18T00:50:07.652Z,1.38
2023-12-18T00:52:34.758Z,1.00
2023-12-18T00:55:03.805Z,1.27
2023-12-18T00:57:30.509Z,1.23
2023-12-18T00:59:57.195Z,0.98
2023-12-18T01:02:23.833Z,1.23
2023-12-18T01:04:50.559Z,1.05
2023-12-18T01:07:17.217Z,1.10
2023-12-18T01:09:43.930Z,1.00
2023-12-18T01:12:12.898Z,1.27
2023-12-18T01:14:39.691Z,1.10
2023-12-18T01:17:06.417Z,0.85
2023-12-18T01:19:33.271Z,1.20
2023-12-18T01:22:00.017Z,1.00
2023-12-18T01:24:26.637Z,1.40
2023-12-18T01:26:53.260Z,1.30
2023-12-18T01:29:20.144Z,0.98
2023-12-18T01:31:46.760Z,0.80
2023-12-18T01:34:13.420Z,0.90
2023-12-18T01:36:40.123Z,1.55
2023-12-18T01:39:07.028Z,0.82
2023-12-18T01:41:35.917Z,1.30
2023-12-18T01:44:02.532Z,1.40
2023-12-18T01:46:29.722Z,1.10
2023-12-18T01:48:56.569Z,1.17
2023-12-18T01:51:23.998Z,1.20
2023-12-18T01:53:55.189Z,1.27
2023-12-18T01:56:27.690Z,1.55
2023-12-18T01:59:00.455Z,1.07
2023-12-18T02:01:28.926Z,0.95
2023-12-18T02:03:56.442Z,1.00
2023-12-18T02:06:23.869Z,0.82
2023-12-18T02:08:50.596Z,1.27
2023-12-18T02:11:17.279Z,1.27
2023-12-18T02:13:44.913Z,1.10
2023-12-18T02:16:11.680Z,1.10
2023-12-18T02:18:46.327Z,0.90
2023-12-18T02:21:18.961Z,1.50
2023-12-18T02:23:45.650Z,0.90
2023-12-18T02:26:12.274Z,1.13
2023-12-18T02:28:39.625Z,0.93
2023-12-18T02:31:07.306Z,1.38
2023-12-18T02:33:34.269Z,1.40
2023-12-18T02:36:02.629Z,1.23
2023-12-18T02:38:29.386Z,1.10
2023-12-18T02:40:56.030Z,1.30
2023-12-18T02:43:22.723Z,1.27
2023-12-18T02:45:49.354Z,1.20
2023-12-18T02:48:18.687Z,1.30
2023-12-18T02:50:45.408Z,1.50
2023-12-18T02:53:12.790Z,1.00
2023-12-18T02:55:39.409Z,1.02
2023-12-18T02:58:06.003Z,1.00
2023-12-18T03:00:32.710Z,1.20
2023-12-18T03:03:01.958Z,0.90
2023-12-18T03:05:28.645Z,1.55
2023-12-18T03:07:55.285Z,0.93
2023-12-18T03:10:24.110Z,1.10
2023-12-18T03:12:50.699Z,1.10
2023-12-18T03:15:17.328Z,1.00
2023-12-18T03:17:46.349Z,1.20
2023-12-18T03:20:15.685Z,1.25
2023-12-18T03:22:42.505Z,0.95
2023-12-18T03:25:12.046Z,0.90
2023-12-18T03:27:38.846Z,0.93
2023-12-18T03:30:06.484Z,1.20
2023-12-18T03:32:35.611Z,1.00
2023-12-18T03:35:02.333Z,1.00
2023-12-18T03:37:29.002Z,1.10
2023-12-18T03:39:55.669Z,1.25
2023-12-18T03:42:22.733Z,0.90
2023-12-18T03:44:49.386Z,1.20
2023-12-18T03:47:16.156Z,1.00
2023-12-18T03:49:44.982Z,0.90
2023-12-18T03:52:11.691Z,1.30
2023-12-18T03:54:38.322Z,0.95
2023-12-18T03:57:07.465Z,0.90
2023-12-18T03:59:34.494Z,1.30
2023-12-18T04:02:01.151Z,1.30
2023-12-18T04:04:27.835Z,1.52
2023-12-18T04:06:56.739Z,1.10
2023-12-18T04:09:23.390Z,1.20
2023-12-18T04:11:50.595Z,0.80
2023-12-18T04:14:17.187Z,1.30
2023-12-18T04:16:43.764Z,1.02
2023-12-18T04:19:10.641Z,1.10
2023-12-18T04:21:37.409Z,0.90
2023-12-18T04:24:04.354Z,1.27
2023-12-18T04:26:30.978Z,1.50
2023-12-18T04:28:57.656Z,1.10
2023-12-18T04:31:24.386Z,1.00
2023-12-18T04:33:51.080Z,1.33
2023-12-18T04:36:17.820Z,1.55
2023-12-18T04:38:44.587Z,1.10
2023-12-18T04:41:21.306Z,1.00
2023-12-18T04:43:48.438Z,0.93
2023-12-18T04:46:15.893Z,1.00
2023-12-18T04:48:43.240Z,1.23
2023-12-18T04:51:10.501Z,1.00
2023-12-18T04:53:37.593Z,1.40
2023-12-18T04:56:05.525Z,1.40
2023-12-18T04:58:35.707Z,1.00
2023-12-18T05:01:02.825Z,1.23
2023-12-18T05:03:32.053Z,1.20
2023-12-18T05:05:58.905Z,1.15
2023-12-18T05:08:25.546Z,1.10
2023-12-18T05:10:52.240Z,1.05
2023-12-18T05:13:23.517Z,1.25
2023-12-18T05:15:52.432Z,1.20
2023-12-18T05:18:19.138Z,1.30
2023-12-18T05:20:45.831Z,1.40
2023-12-18T05:23:12.468Z,1.00
2023-12-18T05:25:39.164Z,1.23
2023-12-18T05:28:08.029Z,0.90
2023-12-18T05:30:35.547Z,1.17
2023-12-18T05:33:03.535Z,1.48
2023-12-18T05:35:30.332Z,1.30
2023-12-18T05:37:56.963Z,1.42
2023-12-18T05:40:23.631Z,1.17
2023-12-18T05:42:50.927Z,0.88
2023-12-18T05:45:17.830Z,0.80
2023-12-18T05:47:44.493Z,0.93
2023-12-18T05:50:12.112Z,1.50
2023-12-18T05:52:39.201Z,1.00
2023-12-18T05:55:08.404Z,1.10
2023-12-18T05:57:36.528Z,1.13
2023-12-18T06:00:05.153Z,1.20
2023-12-18T06:02:32.321Z,1.00
2023-12-18T06:05:01.546Z,1.27
2023-12-18T06:07:28.265Z,1.05
2023-12-18T06:09:54.955Z,1.27
2023-12-18T06:12:21.799Z,1.10
2023-12-18T06:14:48.707Z,1.58
2023-12-18T06:17:15.446Z,0.90
2023-12-18T06:19:42.297Z,1.40
2023-12-18T06:22:11.532Z,1.13
2023-12-18T06:24:40.463Z,1.35
2023-12-18T06:27:07.139Z,1.38
2023-12-18T06:29:33.868Z,0.83
2023-12-18T06:32:00.575Z,1.15
2023-12-18T06:34:29.673Z,1.40
2023-12-18T06:36:56.354Z,1.15
2023-12-18T06:39:23.059Z,1.00
2023-12-18T06:41:49.812Z,1.10
2023-12-18T06:44:16.421Z,1.05
2023-12-18T06:46:45.398Z,1.00
2023-12-18T06:49:12.235Z,0.95
2023-12-18T06:51:38.959Z,0.70
2023-12-18T06:54:05.846Z,0.50
2023-12-18T06:56:35.214Z,0.52
2023-12-18T06:59:03.182Z,1.10
2023-12-18T07:01:29.946Z,0.70
2023-12-18T07:03:57.432Z,0.65
2023-12-18T07:06:26.386Z,0.93
2023-12-18T07:08:53.146Z,0.68
2023-12-18T07:11:19.785Z,0.80
2023-12-18T07:13:46.440Z,0.65
2023-12-18T07:16:23.079Z,0.68
2023-12-18T07:18:52.427Z,0.50
2023-12-18T07:21:19.289Z,1.40
2023-12-18T07:23:46.023Z,1.80
2023-12-18T07:26:14.630Z,1.45
2023-12-18T07:28:42.604Z,1.60
2023-12-18T07:31:09.932Z,1.43
2023-12-18T07:33:39.088Z,1.42
2023-12-18T07:36:06.021Z,1.42
2023-12-18T07:38:35.090Z,1.42
2023-12-18T07:41:04.282Z,1.75
2023-12-18T07:43:31.147Z,1.90
2023-12-18T07:45:58.080Z,2.10
2023-12-18T07:48:28.639Z,1.98
2023-12-18T07:50:57.116Z,2.33
2023-12-18T07:53:26.260Z,2.15
2023-12-18T07:55:54.256Z,1.83
2023-12-18T07:58:21.032Z,2.20
2023-12-18T08:00:47.947Z,1.90
2023-12-18T08:03:14.733Z,1.77
2023-12-18T08:05:41.488Z,2.28
2023-12-18T08:08:12.865Z,2.20
2023-12-18T08:10:39.702Z,1.55
2023-12-18T08:13:07.105Z,2.42
2023-12-18T08:15:33.753Z,1.70
2023-12-18T08:18:00.554Z,2.45
2023-12-18T08:20:27.251Z,1.40
2023-12-18T08:22:53.950Z,1.60
2023-12-18T08:25:22.255Z,2.08
2023-12-18T08:27:48.975Z,2.00
2023-12-18T08:30:15.991Z,1.85
2023-12-18T08:32:42.901Z,2.30
2023-12-18T08:35:12.144Z,1.90
2023-12-18T08:37:38.822Z,1.70
2023-12-18T08:40:06.183Z,1.40
2023-12-18T08:42:32.872Z,1.42
2023-12-18T08:44:59.681Z,1.53
2023-12-18T08:47:28.089Z,1.50
2023-12-18T08:49:54.798Z,1.80
2023-12-18T08:52:21.462Z,1.73
2023-12-18T08:54:48.205Z,1.70
2023-12-18T08:57:14.866Z,1.67
2023-12-18T08:59:41.570Z,1.60
2023-12-18T09:02:08.262Z,2.00
2023-12-18T09:04:35.027Z,1.45
2023-12-18T09:07:01.875Z,2.00
2023-12-18T09:09:28.681Z,1.70
2023-12-18T09:11:55.433Z,1.73
2023-12-18T09:14:22.057Z,1.70
2023-12-18T09:16:49.865Z,1.58
2023-12-18T09:19:16.659Z,2.28
2023-12-18T09:21:43.418Z,1.53
2023-12-18T09:24:10.144Z,1.90
2023-12-18T09:26:36.796Z,1.33
2023-12-18T09:29:03.888Z,1.17
2023-12-18T09:31:33.023Z,1.65
2023-12-18T09:34:00.023Z,1.43
2023-12-18T09:36:26.808Z,1.42
2023-12-18T09:38:53.463Z,1.42
2023-12-18T09:41:27.618Z,1.35
2023-12-18T09:43:55.313Z,1.52
2023-12-18T09:46:26.224Z,1.20
2023-12-18T09:48:54.386Z,1.35
2023-12-18T09:51:23.502Z,1.98
2023-12-18T09:53:51.777Z,1.70
2023-12-18T09:56:21.269Z,1.70
2023-12-18T09:58:48.453Z,1.50
2023-12-18T10:01:15.915Z,2.67
2023-12-18T10:03:43.420Z,2.13
2023-12-18T10:06:10.783Z,2.55
2023-12-18T10:08:37.791Z,2.25
2023-12-18T10:11:04.854Z,1.67
2023-12-18T10:13:31.712Z,1.40
2023-12-18T10:16:00.418Z,2.00
2023-12-18T10:18:29.635Z,1.33
2023-12-18T10:20:56.451Z,1.88
2023-12-18T10:23:24.373Z,2.37
2023-12-18T10:25:55.566Z,1.63
2023-12-18T10:28:22.536Z,1.52
2023-12-18T10:30:49.238Z,1.67
2023-12-18T10:33:18.720Z,1.67
2023-12-18T10:35:49.321Z,1.10
2023-12-18T10:38:22.084Z,1.17
2023-12-18T10:40:51.773Z,1.33
2023-12-18T10:43:25.384Z,1.20
2023-12-18T10:45:55.379Z,1.08
2023-12-18T10:48:22.721Z,1.60
2023-12-18T10:50:52.153Z,1.30
2023-12-18T10:53:19.194Z,0.95
2023-12-18T10:55:48.200Z,1.10
2023-12-18T10:58:17.568Z,0.90
2023-12-18T11:00:45.404Z,1.13
2023-12-18T11:03:14.696Z,1.10
2023-12-18T11:05:42.814Z,1.52
2023-12-18T11:08:11.659Z,1.10
2023-12-18T11:10:38.441Z,1.00
2023-12-18T11:13:20.795Z,1.13
2023-12-18T11:16:07.891Z,1.13
2023-12-18T11:18:46.701Z,1.08
2023-12-18T11:21:13.589Z,1.35
2023-12-18T11:23:43.625Z,1.10
2023-12-18T11:26:14.088Z,1.07
2023-12-18T11:28:41.198Z,1.00
2023-12-18T11:31:13.248Z,1.10
2023-12-18T11:34:01.082Z,3.35
2023-12-18T11:36:28.103Z,2.05
2023-12-18T11:38:56.304Z,2.13
2023-12-18T11:41:40.920Z,1.40
2023-12-18T11:44:09.208Z,1.90
2023-12-18T11:46:35.989Z,1.63
2023-12-18T11:49:11.862Z,1.85
2023-12-18T11:51:43.090Z,1.40
2023-12-18T11:54:16.037Z,1.67
2023-12-18T11:56:43.977Z,1.67
2023-12-18T11:59:11.489Z,1.60
2023-12-18T12:01:39.383Z,2.67
2023-12-18T12:04:08.491Z,2.50
2023-12-18T12:06:35.541Z,2.08
2023-12-18T12:09:02.272Z,2.10
2023-12-18T12:11:29.000Z,1.42
2023-12-18T12:13:55.974Z,2.00
2023-12-18T12:16:23.223Z,2.00
2023-12-18T12:18:56.470Z,2.28
2023-12-18T12:21:32.301Z,1.33
2023-12-18T12:24:05.625Z,1.60
2023-12-18T12:26:34.785Z,1.45
2023-12-18T12:29:03.653Z,1.40
2023-12-18T12:31:34.431Z,1.70
2023-12-18T12:34:01.732Z,1.40
2023-12-18T12:36:28.637Z,1.40
2023-12-18T12:38:55.721Z,1.40
2023-12-18T12:41:24.833Z,1.50
2023-12-18T12:43:51.643Z,1.52
2023-12-18T12:46:23.065Z,1.70
2023-12-18T12:48:56.299Z,1.67
2023-12-18T12:51:23.168Z,1.40
2023-12-18T12:53:50.576Z,1.33
2023-12-18T12:56:17.323Z,1.00
2023-12-18T12:58:44.199Z,1.70
2023-12-18T13:01:10.969Z,1.33
2023-12-18T13:03:37.835Z,1.35
2023-12-18T13:06:05.206Z,1.07
2023-12-18T13:08:31.861Z,1.30
2023-12-18T13:11:00.474Z,1.67
2023-12-18T13:13:30.483Z,1.52
2023-12-18T13:15:57.240Z,1.50
2023-12-18T13:18:24.240Z,1.47
2023-12-18T13:20:51.162Z,1.35
2023-12-18T13:23:18.115Z,1.10
2023-12-18T13:25:44.976Z,1.30
2023-12-18T13:28:11.736Z,1.33
2023-12-18T13:30:38.503Z,1.17
2023-12-18T13:33:05.375Z,1.20
2023-12-18T13:35:32.080Z,1.58
2023-12-18T13:37:59.758Z,0.70
2023-12-18T13:40:28.714Z,2.00
2023-12-18T13:42:56.119Z,1.17
2023-12-18T13:45:25.167Z,1.30
2023-12-18T13:47:52.751Z,1.63
2023-12-18T13:50:20.074Z,1.23
2023-12-18T13:52:49.551Z,1.40
2023-12-18T13:55:16.344Z,1.47
2023-12-18T13:57:48.447Z,1.30
2023-12-18T14:00:16.798Z,1.00
2023-12-18T14:02:45.678Z,1.23
2023-12-18T14:05:12.368Z,1.50
2023-12-18T14:07:39.328Z,1.40
2023-12-18T14:10:10.291Z,1.05
2023-12-18T14:12:37.351Z,1.48
2023-12-18T14:15:05.324Z,1.23
2023-12-18T14:17:32.204Z,1.33
2023-12-18T14:20:05.452Z,0.93
2023-12-18T14:22:32.709Z,1.63
2023-12-18T14:25:03.695Z,1.60
2023-12-18T14:27:32.011Z,1.55
2023-12-18T14:29:58.699Z,1.30
2023-12-18T14:32:25.471Z,1.17
2023-12-18T14:34:52.505Z,1.50
2023-12-18T14:37:21.734Z,1.40
2023-12-18T14:39:50.467Z,1.27
2023-12-18T14:42:17.289Z,1.50
2023-12-18T14:44:44.212Z,1.30
2023-12-18T14:47:11.679Z,1.73
2023-12-18T14:49:38.465Z,1.10
2023-12-18T14:52:05.664Z,1.25
2023-12-18T14:54:32.452Z,1.38
2023-12-18T14:57:01.629Z,0.97
2023-12-18T14:59:28.283Z,1.30
2023-12-18T15:01:57.646Z,1.45
2023-12-18T15:04:30.107Z,1.15
2023-12-18T15:06:58.468Z,1.65
2023-12-18T15:09:25.556Z,1.73
2023-12-18T15:11:52.414Z,1.80
2023-12-18T15:14:19.013Z,1.80
2023-12-18T15:16:45.642Z,1.42
2023-12-18T15:19:12.619Z,1.90
2023-12-18T15:21:40.341Z,2.30
2023-12-18T15:24:09.868Z,2.28
2023-12-18T15:26:37.934Z,2.28
2023-12-18T15:29:04.761Z,2.10
2023-12-18T15:31:31.738Z,3.17
2023-12-18T15:33:59.950Z,2.20
2023-12-18T15:36:28.973Z,2.45
2023-12-18T15:38:55.807Z,1.73
2023-12-18T15:41:22.474Z,3.03
2023-12-18T15:43:49.146Z,1.90
2023-12-18T15:46:15.793Z,1.87
2023-12-18T15:48:44.983Z,2.13
2023-12-18T15:51:11.731Z,1.80
2023-12-18T15:53:39.822Z,1.90
2023-12-18T15:56:07.967Z,2.25
2023-12-18T15:58:34.676Z,1.77
2023-12-18T16:01:01.488Z,2.00
2023-12-18T16:03:28.381Z,1.70
2023-12-18T16:05:56.755Z,2.10
2023-12-18T16:08:23.902Z,1.98
2023-12-18T16:10:51.846Z,1.80
2023-12-18T16:13:18.538Z,2.42
2023-12-18T16:15:47.712Z,2.20
2023-12-18T16:18:16.971Z,1.85
2023-12-18T16:20:43.700Z,2.13
2023-12-18T16:23:10.867Z,1.57
2023-12-18T16:25:37.895Z,1.80
2023-12-18T16:28:05.017Z,2.03
2023-12-18T16:30:38.684Z,2.55
2023-12-18T16:33:11.438Z,2.10
2023-12-18T16:35:38.059Z,2.03
2023-12-18T16:38:04.693Z,2.08
2023-12-18T16:40:31.356Z,2.50
2023-12-18T16:42:58.085Z,2.15
2023-12-18T16:45:27.110Z,2.38
2023-12-18T16:47:53.845Z,1.63
2023-12-18T16:50:20.581Z,2.22
2023-12-18T16:52:47.285Z,2.33
2023-12-18T16:55:13.925Z,1.98
2023-12-18T16:57:42.148Z,1.60
2023-12-18T17:00:13.230Z,2.30
2023-12-18T17:02:41.249Z,2.33
2023-12-18T17:05:08.908Z,1.80
2023-12-18T17:07:35.654Z,2.00
2023-12-18T17:10:03.028Z,2.03
2023-12-18T17:12:31.128Z,2.00
2023-12-18T17:14:57.970Z,1.90
2023-12-18T17:17:27.031Z,1.88
2023-12-18T17:19:53.863Z,2.10
2023-12-18T17:22:20.636Z,1.70
2023-12-18T17:24:50.485Z,2.10
2023-12-18T17:27:17.202Z,1.83
2023-12-18T17:29:43.900Z,2.05
2023-12-18T17:32:27.711Z,1.90
2023-12-18T17:34:56.544Z,2.13
2023-12-18T17:37:23.288Z,1.83
2023-12-18T17:39:49.972Z,1.83
2023-12-18T17:42:17.005Z,1.70
2023-12-18T17:44:46.097Z,1.92
2023-12-18T17:47:12.942Z,2.17
2023-12-18T17:49:41.816Z,1.70
2023-12-18T17:52:08.714Z,2.15
2023-12-18T17:54:37.593Z,1.98
2023-12-18T17:57:04.914Z,1.83
2023-12-18T17:59:31.637Z,1.83
2023-12-18T18:01:58.300Z,1.50
2023-12-18T18:04:25.110Z,1.45
2023-12-18T18:06:51.951Z,1.38
2023-12-18T18:09:18.635Z,1.73
2023-12-18T18:11:45.309Z,1.50
2023-12-18T18:14:12.062Z,1.43
2023-12-18T18:16:39.016Z,1.58
2023-12-18T18:19:08.999Z,1.83
2023-12-18T18:21:38.389Z,1.30
2023-12-18T18:24:07.302Z,1.60
2023-12-18T18:26:33.954Z,1.50
2023-12-18T18:29:00.798Z,1.98
2023-12-18T18:31:27.550Z,1.55
2023-12-18T18:33:54.395Z,2.15
2023-12-18T18:36:22.942Z,1.65
2023-12-18T18:38:52.566Z,1.80
2023-12-18T18:41:19.370Z,1.60
2023-12-18T18:43:46.140Z,1.42
2023-12-18T18:46:14.097Z,1.50
2023-12-18T18:48:42.188Z,1.63
2023-12-18T18:51:11.748Z,1.40
2023-12-18T18:53:38.398Z,1.58
2023-12-18T18:56:08.417Z,1.35
2023-12-18T18:58:36.180Z,2.35
2023-12-18T19:01:04.005Z,1.55
2023-12-18T19:03:31.063Z,2.33
2023-12-18T19:05:57.710Z,2.60
2023-12-18T19:08:25.693Z,3.20
2023-12-18T19:10:52.336Z,2.80
2023-12-18T19:13:19.904Z,2.53
2023-12-18T19:15:48.090Z,2.73
2023-12-18T19:18:15.118Z,2.85
2023-12-18T19:20:41.854Z,3.17
2023-12-18T19:23:10.953Z,2.25
2023-12-18T19:25:38.020Z,2.88
2023-12-18T19:28:05.059Z,2.23
2023-12-18T19:30:31.977Z,2.60
2023-12-18T19:32:58.820Z,2.30
2023-12-18T19:35:25.825Z,2.15
2023-12-18T19:37:52.611Z,2.30
2023-12-18T19:40:19.317Z,2.00
2023-12-18T19:42:45.940Z,2.10
2023-12-18T19:45:12.659Z,2.17
2023-12-18T19:47:39.470Z,2.42
2023-12-18T19:50:08.013Z,2.30
2023-12-18T19:52:35.005Z,2.37
2023-12-18T19:55:01.643Z,1.98
2023-12-18T19:57:30.005Z,2.38
2023-12-18T19:59:56.810Z,2.38
2023-12-18T20:02:23.452Z,2.30
2023-12-18T20:04:50.117Z,1.97
2023-12-18T20:07:16.889Z,2.20
2023-12-18T20:09:43.857Z,2.53
2023-12-18T20:12:10.512Z,2.13
2023-12-18T20:14:37.140Z,2.03
2023-12-18T20:17:03.957Z,2.20
2023-12-18T20:19:30.789Z,2.05
2023-12-18T20:21:57.583Z,2.10
2023-12-18T20:24:24.536Z,2.05
2023-12-18T20:26:51.248Z,1.90
2023-12-18T20:29:17.858Z,2.00
2023-12-18T20:31:47.097Z,2.30
2023-12-18T20:34:13.911Z,2.17
2023-12-18T20:36:40.597Z,2.45
2023-12-18T20:39:10.458Z,1.50
2023-12-18T20:41:37.546Z,1.90
2023-12-18T20:44:04.149Z,2.08
2023-12-18T20:46:31.070Z,2.13
2023-12-18T20:48:57.787Z,1.77
2023-12-18T20:51:24.463Z,2.53
2023-12-18T20:53:51.066Z,1.80
2023-12-18T20:56:17.697Z,1.98
2023-12-18T20:58:44.599Z,2.10
2023-12-18T21:01:12.912Z,2.28
2023-12-18T21:03:39.904Z,2.00
2023-12-18T21:06:07.078Z,1.80
2023-12-18T21:08:34.123Z,2.30
2023-12-18T21:11:00.737Z,2.15
2023-12-18T21:13:29.937Z,2.10
2023-12-18T21:15:57.847Z,2.40
2023-12-18T21:18:24.696Z,1.93
2023-12-18T21:20:51.383Z,1.83
2023-12-18T21:23:18.026Z,2.35
2023-12-18T21:25:44.741Z,2.05
2023-12-18T21:28:11.401Z,2.30
2023-12-18T21:30:38.254Z,2.00
2023-12-18T21:33:05.345Z,2.10
2023-12-18T21:35:32.302Z,2.08
2023-12-18T21:37:59.009Z,1.77
2023-12-18T21:40:25.793Z,2.60
2023-12-18T21:42:52.494Z,2.30
2023-12-18T21:45:20.462Z,1.67
2023-12-18T21:47:51.549Z,1.85
2023-12-18T21:50:18.271Z,1.80
2023-12-18T21:52:45.216Z,2.15
2023-12-18T21:55:12.410Z,1.97
2023-12-18T21:57:39.097Z,1.58
2023-12-18T22:00:06.315Z,2.00
2023-12-18T22:02:33.279Z,1.58
2023-12-18T22:05:00.327Z,1.98
2023-12-18T22:07:26.972Z,1.63
2023-12-18T22:09:56.236Z,1.65
2023-12-18T22:12:22.862Z,2.22
2023-12-18T22:14:51.855Z,2.00
2023-12-18T22:17:19.459Z,2.78
2023-12-18T22:19:46.366Z,2.27
2023-12-18T22:22:13.294Z,1.75
2023-12-18T22:24:39.993Z,2.00
2023-12-18T22:27:06.688Z,1.55
2023-12-18T22:29:33.323Z,1.80
2023-12-18T22:32:01.457Z,1.63
2023-12-18T22:34:28.425Z,2.13
2023-12-18T22:36:56.099Z,2.00
2023-12-18T22:39:25.492Z,2.38
2023-12-18T22:41:52.174Z,2.30
2023-12-18T22:44:20.840Z,1.73
2023-12-18T22:46:47.541Z,2.30
2023-12-18T22:49:14.306Z,2.00
2023-12-18T22:51:43.272Z,1.65
2023-12-18T22:54:10.000Z,2.30
2023-12-18T22:56:36.751Z,2.07
2023-12-18T22:59:03.389Z,1.90
2023-12-18T23:01:31.734Z,2.00
2023-12-18T23:03:59.788Z,2.30
2023-12-18T23:06:26.767Z,1.88
2023-12-18T23:08:53.944Z,1.73
2023-12-18T23:11:23.976Z,2.60
2023-12-18T23:13:51.956Z,2.25
2023-12-18T23:16:18.610Z,1.70
2023-12-18T23:18:45.455Z,2.25
2023-12-18T23:21:14.409Z,1.90
2023-12-18T23:23:41.076Z,2.03
2023-12-18T23:26:08.555Z,2.25
2023-12-18T23:28:37.102Z,2.10
2023-12-18T23:31:04.522Z,2.00
2023-12-18T23:33:36.365Z,1.80
2023-12-18T23:36:05.617Z,2.15
2023-12-18T23:38:32.273Z,2.30
2023-12-18T23:41:03.707Z,2.10
2023-12-18T23:43:30.374Z,1.80
2023-12-18T23:45:57.059Z,2.17
2023-12-18T23:48:23.838Z,1.60
2023-12-18T23:50:52.690Z,2.28
2023-12-18T23:53:21.662Z,1.98
2023-12-18T23:55:49.152Z,2.00
2023-12-18T23:58:17.956Z,2.03
